Time;durP1;ratioP1;P1;durP2;ratioP2;P2;SDS_P1;SDS_P2;PMS_P1;PMS_P2;Temp;Humidity;BMP_temperature;BMP_pressure;BME280_temperature;BME280_humidity;BME280_pressure;Samples;Min_cycle;Max_cycle;Signal;HPM_P1;HPM_P2
2022/10/16 00:01:55;;;;;;;5.68;2.00;;;;;;;15.39;100.00;100136.16;20580097;28;20065;-71
2022/10/16 00:11:57;;;;;;;4.72;2.33;;;;;;;15.48;100.00;100129.66;20584316;28;20050;-73
2022/10/16 00:21:58;;;;;;;5.97;2.45;;;;;;;15.45;100.00;100118.38;20577993;28;20051;-72
2022/10/16 00:31:59;;;;;;;4.63;2.17;;;;;;;15.39;100.00;100140.59;20536555;28;20062;-70
2022/10/16 00:42:01;;;;;;;5.10;2.10;;;;;;;15.37;100.00;100110.75;20496837;29;20142;-70
2022/10/16 00:52:02;;;;;;;6.07;2.17;;;;;;;15.43;100.00;100117.56;20495468;29;20067;-70
2022/10/16 01:02:03;;;;;;;4.38;2.20;;;;;;;15.44;100.00;100122.78;20496759;29;20213;-70
2022/10/16 01:12:05;;;;;;;5.80;2.10;;;;;;;15.47;100.00;100141.13;20495175;29;20130;-70
2022/10/16 01:22:06;;;;;;;4.97;2.20;;;;;;;15.48;100.00;100132.31;20494725;29;20075;-70
2022/10/16 01:32:07;;;;;;;6.05;2.20;;;;;;;15.38;100.00;100123.91;20535219;28;20093;-71
2022/10/16 01:42:08;;;;;;;5.75;1.90;;;;;;;15.28;100.00;100116.38;20573977;28;20074;-70
2022/10/16 01:52:10;;;;;;;5.30;2.00;;;;;;;15.27;100.00;100127.88;20573095;28;20142;-69
2022/10/16 02:02:11;;;;;;;5.00;2.03;;;;;;;15.18;100.00;100136.13;20573168;28;20701;-70
2022/10/16 02:12:12;;;;;;;6.15;2.80;;;;;;;15.05;100.00;100144.53;20587421;28;20075;-69
2022/10/16 02:22:14;;;;;;;9.05;2.83;;;;;;;14.93;100.00;100147.63;20538412;28;20511;-70
2022/10/16 02:32:15;;;;;;;4.90;2.17;;;;;;;14.88;100.00;100149.56;20547343;28;20058;-70
2022/10/16 02:42:16;;;;;;;4.65;2.20;;;;;;;14.86;100.00;100152.28;20585096;28;20129;-70
2022/10/16 02:52:18;;;;;;;7.43;2.30;;;;;;;14.91;100.00;100164.44;20584854;28;20066;-71
2022/10/16 03:02:19;;;;;;;5.70;2.47;;;;;;;14.92;100.00;100174.91;20583603;28;20106;-70
2022/10/16 03:12:21;;;;;;;6.28;2.70;;;;;;;14.96;100.00;100173.03;20583244;28;20082;-70
2022/10/16 03:22:22;;;;;;;5.40;2.90;;;;;;;14.92;100.00;100150.31;20581204;28;20074;-70
2022/10/16 03:32:24;;;;;;;4.65;2.20;;;;;;;14.87;100.00;100168.94;20537169;28;20512;-69
2022/10/16 03:42:26;;;;;;;6.40;2.55;;;;;;;14.88;100.00;100170.66;20500713;29;20051;-69
2022/10/16 03:52:27;;;;;;;9.25;3.65;;;;;;;14.93;100.00;100174.00;20499433;29;20071;-70
2022/10/16 04:02:29;;;;;;;6.95;2.97;;;;;;;14.96;100.00;100176.53;20497920;29;20082;-70
2022/10/16 04:12:30;;;;;;;7.45;3.58;;;;;;;15.00;100.00;100172.84;20498207;29;20059;-69
2022/10/16 04:22:31;;;;;;;6.40;2.92;;;;;;;15.02;100.00;100185.97;20497900;29;20051;-69
2022/10/16 04:32:33;;;;;;;8.40;3.35;;;;;;;14.98;100.00;100195.75;20563103;23;20510;-72
2022/10/16 04:42:34;;;;;;;6.95;2.63;;;;;;;15.04;100.00;100192.03;20564198;28;20137;-71
2022/10/16 04:52:35;;;;;;;9.02;2.65;;;;;;;15.07;100.00;100205.97;20504591;28;20121;-70
2022/10/16 05:02:37;;;;;;;5.82;3.05;;;;;;;15.09;100.00;100206.78;20495894;28;20428;-70
2022/10/16 05:12:38;;;;;;;6.75;2.78;;;;;;;15.09;100.00;100214.72;20495082;29;20149;-70
2022/10/16 05:22:40;;;;;;;4.85;2.55;;;;;;;15.13;100.00;100212.78;20495315;28;20413;-69
2022/10/16 05:32:41;;;;;;;6.80;2.80;;;;;;;15.14;100.00;100217.19;20494288;28;20050;-72
2022/10/16 05:42:42;;;;;;;6.90;3.17;;;;;;;15.08;100.00;100236.69;20504172;28;20091;-71
2022/10/16 05:52:43;;;;;;;6.95;2.90;;;;;;;15.05;100.00;100217.50;20509929;29;20546;-71
2022/10/16 06:02:45;;;;;;;7.07;2.90;;;;;;;15.00;100.00;100233.50;20509042;29;20094;-71
2022/10/16 06:12:46;;;;;;;5.95;3.13;;;;;;;15.01;100.00;100245.75;20507857;29;20592;-72
2022/10/16 06:22:47;;;;;;;5.95;2.80;;;;;;;15.03;100.00;100238.63;20507356;28;20133;-72
2022/10/16 06:32:49;;;;;;;8.13;2.90;;;;;;;15.07;100.00;100250.81;20507088;29;20784;-72
2022/10/16 06:42:51;;;;;;;5.60;2.55;;;;;;;15.13;100.00;100255.84;20506024;29;20623;-72
2022/10/16 06:52:53;;;;;;;9.98;3.25;;;;;;;15.26;100.00;100266.81;20504903;28;20071;-71
2022/10/16 07:02:54;;;;;;;8.65;3.13;;;;;;;15.31;100.00;100269.28;20502776;28;20054;-71
2022/10/16 07:12:55;;;;;;;3.80;2.40;;;;;;;15.44;100.00;100301.34;20499761;28;20059;-71
2022/10/16 07:22:57;;;;;;;10.93;2.70;;;;;;;15.50;100.00;100311.66;20498182;28;20059;-71
2022/10/16 07:32:58;;;;;;;7.63;2.92;;;;;;;15.58;100.00;100328.94;20498244;28;20078;-71
2022/10/16 07:43:01;;;;;;;11.18;2.90;;;;;;;15.76;100.00;100342.38;20497362;28;20382;-70
2022/10/16 07:53:04;;;;;;;5.20;2.72;;;;;;;15.90;100.00;100348.00;20498499;28;20408;-71
2022/10/16 08:03:05;;;;;;;5.30;2.60;;;;;;;16.06;100.00;100349.13;20497603;28;20047;-71
2022/10/16 08:13:07;;;;;;;8.88;2.85;;;;;;;16.29;100.00;100349.97;20497679;28;20145;-70
2022/10/16 08:23:08;;;;;;;7.43;2.58;;;;;;;16.28;100.00;100364.13;20498167;28;20067;-71
2022/10/16 08:33:09;;;;;;;6.47;2.38;;;;;;;16.52;100.00;100372.84;20496907;29;20054;-71
2022/10/16 08:43:10;;;;;;;5.32;2.20;;;;;;;16.82;100.00;100407.81;20496733;29;20066;-71
2022/10/16 08:53:12;;;;;;;6.53;2.30;;;;;;;16.87;100.00;100417.25;20496399;29;20469;-70
2022/10/16 09:03:13;;;;;;;6.70;2.78;;;;;;;16.78;100.00;100432.66;20494860;29;20047;-70
2022/10/16 09:13:14;;;;;;;7.95;2.55;;;;;;;16.85;100.00;100429.66;20497774;28;20142;-70
2022/10/16 09:23:16;;;;;;;8.15;2.67;;;;;;;16.76;100.00;100442.41;20510503;29;20055;-70
2022/10/16 09:33:17;;;;;;;7.32;2.58;;;;;;;17.33;100.00;100462.06;20559035;28;20054;-70
2022/10/16 09:43:18;;;;;;;8.50;2.83;;;;;;;17.67;100.00;100462.31;20589953;28;20089;-70
2022/10/16 09:53:22;;;;;;;9.02;2.20;;;;;;;18.12;100.00;100469.19;20512121;28;20074;-70
2022/10/16 10:03:23;;;;;;;5.37;1.80;;;;;;;18.71;100.00;100465.53;20507497;29;20058;-70
2022/10/16 10:13:26;;;;;;;3.58;1.40;;;;;;;19.23;100.00;100470.94;20503207;28;20086;-70
2022/10/16 10:23:29;;;;;;;8.73;2.00;;;;;;;19.51;100.00;100474.84;20584424;28;20058;-70
2022/10/16 10:33:31;;;;;;;7.82;1.98;;;;;;;19.75;100.00;100467.44;20631137;23;20043;-71
2022/10/16 10:43:32;;;;;;;4.00;1.30;;;;;;;19.73;100.00;100466.63;20505575;28;20497;-70
2022/10/16 10:53:33;;;;;;;8.23;1.80;;;;;;;19.92;100.00;100477.16;20507964;28;20055;-71
2022/10/16 11:03:35;;;;;;;5.03;1.77;;;;;;;19.83;100.00;100478.50;20503259;28;20071;-69
2022/10/16 11:13:36;;;;;;;8.27;1.48;;;;;;;19.87;100.00;100473.88;20501928;28;20051;-70
2022/10/16 11:23:37;;;;;;;7.53;2.20;;;;;;;20.26;100.00;100478.84;20500592;28;20475;-69
2022/10/16 11:33:39;;;;;;;5.72;1.63;;;;;;;20.33;100.00;100458.13;20528498;28;20508;-70
2022/10/16 11:43:40;;;;;;;6.95;2.33;;;;;;;20.65;100.00;100456.31;20498368;28;20083;-69
2022/10/16 11:53:42;;;;;;;4.90;1.58;;;;;;;20.77;100.00;100449.47;20495039;28;20083;-70
2022/10/16 12:03:43;;;;;;;7.63;1.80;;;;;;;21.00;100.00;100449.00;20495762;28;20131;-70
2022/10/16 12:13:49;;;;;;;7.47;1.77;;;;;;;20.92;100.00;100445.91;20497297;29;20309;-69
2022/10/16 12:23:50;;;;;;;4.57;2.00;;;;;;;21.11;100.00;100438.56;20492870;28;20142;-69
2022/10/16 12:33:52;;;;;;;5.65;1.65;;;;;;;21.11;100.00;100424.41;20495078;29;20571;-69
2022/10/16 12:43:53;;;;;;;4.10;2.17;;;;;;;21.07;100.00;100445.00;20493913;28;20503;-70
2022/10/16 12:53:55;;;;;;;7.70;2.92;;;;;;;20.88;100.00;100434.56;20495046;28;20095;-70
2022/10/16 13:03:56;;;;;;;3.20;1.63;;;;;;;20.56;100.00;100449.75;20494205;28;20059;-70
2022/10/16 13:13:57;;;;;;;7.72;2.25;;;;;;;20.24;100.00;100465.66;20493922;29;20118;-70
2022/10/16 13:23:59;;;;;;;5.97;2.03;;;;;;;20.03;100.00;100461.50;20493518;29;20055;-70
2022/10/16 13:34:00;;;;;;;6.30;2.60;;;;;;;19.89;100.00;100440.13;20551047;28;20145;-70
2022/10/16 13:44:01;;;;;;;7.53;2.80;;;;;;;19.81;100.00;100434.34;20572203;28;20058;-70
2022/10/16 13:54:03;;;;;;;7.75;3.92;;;;;;;19.76;100.00;100447.03;20571158;28;20078;-70
2022/10/16 14:04:05;;;;;;;6.57;3.45;;;;;;;19.71;100.00;100453.44;20555316;28;20197;-69
2022/10/16 14:14:06;;;;;;;7.75;3.50;;;;;;;19.61;100.00;100454.00;20503882;28;20168;-70
2022/10/16 14:24:07;;;;;;;7.05;3.22;;;;;;;19.60;100.00;100447.84;20503596;29;20087;-70
2022/10/16 14:34:09;;;;;;;9.52;5.22;;;;;;;19.91;100.00;100454.19;20545365;28;20071;-70
2022/10/16 14:44:10;;;;;;;4.65;2.38;;;;;;;20.05;100.00;100454.28;20500914;28;20079;-70
2022/10/16 14:54:11;;;;;;;6.40;2.70;;;;;;;20.00;100.00;100440.41;20502046;29;20142;-69
2022/10/16 15:04:12;;;;;;;6.38;2.30;;;;;;;19.80;100.00;100454.75;20500208;28;20074;-69
2022/10/16 15:14:14;;;;;;;4.50;2.20;;;;;;;19.75;100.00;100470.09;20499018;28;20142;-69
2022/10/16 15:24:15;;;;;;;5.18;2.53;;;;;;;19.62;100.00;100456.56;20501178;28;20043;-69
2022/10/16 15:34:21;;;;;;;4.22;2.20;;;;;;;19.62;100.00;100455.72;20504714;28;20044;-72
2022/10/16 15:44:25;;;;;;;4.72;2.42;;;;;;;19.29;100.00;100476.88;20498806;28;20142;-70
2022/10/16 15:54:26;;;;;;;7.30;3.33;;;;;;;19.29;100.00;100479.53;20497900;28;20089;-70
2022/10/16 16:04:29;;;;;;;10.55;3.33;;;;;;;19.06;100.00;100483.31;20498722;28;20047;-70
2022/10/16 16:14:45;;;;;;;9.35;2.75;;;;;;;18.81;100.00;100481.00;20500208;28;20051;-70
2022/10/16 16:24:47;;;;;;;13.70;6.03;;;;;;;18.42;100.00;100474.84;20484061;28;20059;-70
2022/10/16 16:34:48;;;;;;;12.60;5.30;;;;;;;17.96;100.00;100473.44;20594368;23;20074;-72
2022/10/16 16:44:50;;;;;;;13.15;4.88;;;;;;;17.61;100.00;100473.19;20488621;28;20550;-71
2022/10/16 16:54:51;;;;;;;10.02;5.30;;;;;;;17.23;100.00;100481.91;20484575;28;20086;-69
2022/10/16 17:04:53;;;;;;;7.45;3.80;;;;;;;16.91;100.00;100481.44;20486144;28;20520;-69
2022/10/16 17:14:54;;;;;;;13.18;4.78;;;;;;;16.59;100.00;100501.22;20494428;28;20476;-68
2022/10/16 17:24:55;;;;;;;10.77;3.80;;;;;;;16.33;100.00;100511.00;20486879;29;20093;-68
2022/10/16 17:34:57;;;;;;;9.95;5.10;;;;;;;16.22;100.00;100517.59;20487567;28;20106;-68
2022/10/16 17:44:58;;;;;;;10.80;5.95;;;;;;;16.11;100.00;100515.38;20500978;29;20150;-68
2022/10/16 17:55:00;;;;;;;15.02;8.77;;;;;;;15.97;100.00;100534.34;20498396;29;20150;-69
2022/10/16 18:05:04;;;;;;;30.10;19.33;;;;;;;15.88;100.00;100539.97;20497915;28;20121;-68
2022/10/16 18:15:06;;;;;;;16.70;12.27;;;;;;;15.74;100.00;100545.72;20499482;28;20480;-68
2022/10/16 18:25:07;;;;;;;16.98;9.13;;;;;;;15.62;100.00;100548.75;20498340;28;20555;-68
2022/10/16 18:35:09;;;;;;;11.70;4.28;;;;;;;15.62;100.00;100560.19;20542031;28;20051;-67
2022/10/16 18:45:10;;;;;;;7.95;4.20;;;;;;;15.44;100.00;100558.16;20503751;28;20059;-68
2022/10/16 18:55:11;;;;;;;12.00;4.55;;;;;;;15.29;100.00;100571.84;20494879;28;20078;-68
2022/10/16 19:05:13;;;;;;;12.23;4.63;;;;;;;15.22;100.00;100565.88;20494164;28;20089;-68
2022/10/16 19:15:16;;;;;;;20.15;6.13;;;;;;;15.16;100.00;100576.66;20493983;28;20055;-68
2022/10/16 19:25:17;;;;;;;11.35;5.10;;;;;;;15.04;100.00;100588.47;20492124;28;20051;-68
2022/10/16 19:35:18;;;;;;;9.70;5.50;;;;;;;14.95;100.00;100612.47;20493979;28;20043;-70
2022/10/16 19:45:20;;;;;;;17.85;5.38;;;;;;;14.84;100.00;100606.63;20492249;28;20054;-70
2022/10/16 19:55:21;;;;;;;11.45;6.07;;;;;;;14.72;100.00;100607.88;20491102;28;20051;-71
2022/10/16 20:05:23;;;;;;;14.77;6.78;;;;;;;14.63;100.00;100616.06;20489169;28;20047;-71
2022/10/16 20:15:24;;;;;;;13.80;6.50;;;;;;;14.50;100.00;100628.69;20489128;28;20618;-73
2022/10/16 20:25:26;;;;;;;14.52;5.82;;;;;;;14.41;100.00;100639.47;20492111;28;20055;-70
2022/10/16 20:35:27;;;;;;;13.32;5.97;;;;;;;14.30;100.00;100655.56;20557494;28;20053;-70
2022/10/16 20:45:28;;;;;;;14.95;6.30;;;;;;;14.22;100.00;100669.84;20570637;28;20063;-72
2022/10/16 20:55:30;;;;;;;13.60;6.30;;;;;;;14.12;100.00;100685.88;20567852;28;20090;-70
2022/10/16 21:05:33;;;;;;;20.23;7.05;;;;;;;14.03;100.00;100690.50;20566007;28;20575;-70
2022/10/16 21:15:34;;;;;;;14.43;7.05;;;;;;;13.94;100.00;100702.16;20533187;28;20102;-71
2022/10/16 21:25:36;;;;;;;13.82;6.30;;;;;;;13.84;100.00;100717.28;20504909;28;20078;-71
2022/10/16 21:35:37;;;;;;;23.23;12.07;;;;;;;13.69;100.00;100691.34;20570964;28;20079;-70
2022/10/16 21:45:38;;;;;;;15.20;8.82;;;;;;;13.63;100.00;100698.53;20565778;28;20559;-70
2022/10/16 21:55:40;;;;;;;18.63;9.88;;;;;;;13.55;100.00;100704.81;20581455;28;20124;-70
2022/10/16 22:05:41;;;;;;;18.05;8.43;;;;;;;13.51;100.00;100723.34;20534293;28;20142;-70
2022/10/16 22:15:43;;;;;;;14.70;7.07;;;;;;;13.40;100.00;100723.59;20510823;28;20475;-73
2022/10/16 22:25:44;;;;;;;15.27;6.93;;;;;;;13.29;100.00;100728.22;20507161;28;20062;-74
2022/10/16 22:35:45;;;;;;;16.55;7.00;;;;;;;13.20;100.00;100728.38;20576244;28;20070;-72
2022/10/16 22:45:47;;;;;;;12.73;6.13;;;;;;;13.09;100.00;100724.22;20586168;28;20495;-73
2022/10/16 22:55:48;;;;;;;15.20;6.65;;;;;;;13.00;100.00;100737.56;20584057;28;20484;-73
2022/10/16 23:05:49;;;;;;;12.52;5.57;;;;;;;12.90;100.00;100754.41;20583883;28;20047;-72
2022/10/16 23:15:50;;;;;;;13.18;6.28;;;;;;;12.76;100.00;100765.19;20583170;28;20154;-70
2022/10/16 23:25:52;;;;;;;10.68;6.07;;;;;;;12.70;100.00;100765.31;20581382;28;20051;-70
2022/10/16 23:35:53;;;;;;;11.38;5.57;;;;;;;12.65;100.00;100771.50;20508899;28;20134;-70
2022/10/16 23:45:55;;;;;;;13.77;5.88;;;;;;;12.61;100.00;100785.63;20501065;29;20082;-71
2022/10/16 23:55:56;;;;;;;14.75;6.30;;;;;;;12.48;100.00;100791.06;20498876;29;20090;-72
